createdAt,value
2023-01-13T00:01:21.181Z,8.40
2023-01-13T00:04:11.763Z,8.30
2023-01-13T00:07:01.988Z,8.30
2023-01-13T00:09:50.830Z,8.30
2023-01-13T00:12:41.997Z,8.40
2023-01-13T00:15:30.909Z,8.40
2023-01-13T00:18:19.712Z,8.50
2023-01-13T00:21:11.981Z,8.50
2023-01-13T00:24:02.185Z,8.50
2023-01-13T00:26:51.327Z,8.50
2023-01-13T00:29:40.163Z,8.50
2023-01-13T00:32:29.446Z,8.50
2023-01-13T00:35:18.427Z,8.60
2023-01-13T00:38:07.218Z,8.60
2023-01-13T00:41:00.908Z,8.60
2023-01-13T00:43:49.719Z,8.60
2023-01-13T00:46:38.592Z,8.60
2023-01-13T00:49:27.447Z,8.60
2023-01-13T00:52:16.253Z,8.60
2023-01-13T00:55:05.382Z,8.60
2023-01-13T00:57:55.542Z,8.60
2023-01-13T01:00:44.434Z,8.60
2023-01-13T01:03:33.799Z,8.60
2023-01-13T01:06:24.312Z,8.50
2023-01-13T01:09:14.965Z,8.50
2023-01-13T01:12:03.958Z,8.50
2023-01-13T01:14:54.249Z,8.40
2023-01-13T01:17:43.055Z,8.40
2023-01-13T01:20:31.898Z,8.40
2023-01-13T01:23:20.681Z,8.40
2023-01-13T01:26:13.801Z,8.40
2023-01-13T01:29:03.474Z,8.40
2023-01-13T01:31:53.729Z,8.40
2023-01-13T01:34:42.569Z,8.40
2023-01-13T01:37:31.354Z,8.40
2023-01-13T01:40:20.338Z,8.40
2023-01-13T01:43:33.545Z,8.50
2023-01-13T01:46:22.411Z,8.50
2023-01-13T01:49:17.940Z,8.50
2023-01-13T01:52:10.342Z,8.50
2023-01-13T01:55:02.907Z,8.50
2023-01-13T01:57:56.976Z,8.50
2023-01-13T02:00:46.021Z,8.50
2023-01-13T02:03:38.490Z,8.60
2023-01-13T02:06:29.653Z,8.60
2023-01-13T02:09:19.320Z,8.60
2023-01-13T02:12:25.950Z,8.60
2023-01-13T02:15:17.597Z,8.50
2023-01-13T02:18:27.549Z,8.50
2023-01-13T02:21:42.068Z,8.50
2023-01-13T02:24:59.545Z,8.50
2023-01-13T02:28:15.512Z,8.40
2023-01-13T02:31:26.687Z,8.40
2023-01-13T02:34:24.439Z,8.30
2023-01-13T02:37:20.204Z,8.30
2023-01-13T02:40:13.595Z,8.30
2023-01-13T02:43:25.274Z,8.30
2023-01-13T02:46:20.533Z,8.30
2023-01-13T02:49:13.098Z,8.30
2023-01-13T02:52:08.603Z,8.30
2023-01-13T02:55:00.314Z,8.30
2023-01-13T02:57:50.882Z,8.30
2023-01-13T03:00:40.458Z,8.30
2023-01-13T03:03:30.469Z,8.30
2023-01-13T03:06:37.414Z,8.30
2023-01-13T03:09:31.588Z,8.20
2023-01-13T03:12:31.785Z,8.20
2023-01-13T03:15:37.103Z,8.20
2023-01-13T03:18:41.028Z,8.20
2023-01-13T03:21:34.431Z,8.20
2023-01-13T03:24:29.768Z,8.20
2023-01-13T03:27:23.729Z,8.20
2023-01-13T03:30:17.631Z,8.20
2023-01-13T03:33:10.928Z,8.30
2023-01-13T03:36:05.520Z,8.20
2023-01-13T03:38:58.670Z,8.20
2023-01-13T03:41:53.215Z,8.20
2023-01-13T03:44:46.109Z,8.30
2023-01-13T03:47:37.818Z,8.30
2023-01-13T03:50:32.294Z,8.30
2023-01-13T03:53:28.114Z,8.30
2023-01-13T03:56:23.670Z,8.30
2023-01-13T03:59:18.233Z,8.30
2023-01-13T04:02:11.984Z,8.30
2023-01-13T04:05:03.002Z,8.30
2023-01-13T04:07:57.367Z,8.30
2023-01-13T04:10:53.597Z,8.20
2023-01-13T04:13:45.761Z,8.20
2023-01-13T04:16:37.508Z,8.20
2023-01-13T04:19:26.272Z,8.00
2023-01-13T04:22:14.943Z,7.70
2023-01-13T04:25:03.560Z,7.50
2023-01-13T04:27:53.573Z,7.40
2023-01-13T04:30:43.099Z,7.30
2023-01-13T04:33:31.771Z,7.20
2023-01-13T04:36:25.144Z,7.10
2023-01-13T04:39:13.889Z,7.00
2023-01-13T04:42:02.499Z,7.00
2023-01-13T04:44:52.545Z,6.90
2023-01-13T04:47:41.912Z,6.90
2023-01-13T04:50:30.653Z,6.80
2023-01-13T04:53:19.288Z,6.80
2023-01-13T04:56:08.382Z,6.70
2023-01-13T04:58:57.030Z,6.70
2023-01-13T05:01:47.065Z,6.60
2023-01-13T05:04:35.897Z,6.60
2023-01-13T05:07:24.560Z,6.60
2023-01-13T05:10:13.527Z,6.50
2023-01-13T05:13:19.513Z,6.40
2023-01-13T05:16:28.597Z,6.40
2023-01-13T05:19:18.615Z,6.40
2023-01-13T05:22:25.115Z,6.40
2023-01-13T05:25:22.690Z,6.40
2023-01-13T05:28:11.871Z,6.40
2023-01-13T05:31:00.656Z,6.40
2023-01-13T05:33:49.309Z,6.40
2023-01-13T05:36:39.327Z,6.30
2023-01-13T05:39:48.825Z,6.30
2023-01-13T05:42:54.622Z,6.30
2023-01-13T05:45:43.223Z,6.30
2023-01-13T05:48:33.575Z,6.30
2023-01-13T05:51:26.332Z,6.30
2023-01-13T05:54:16.780Z,6.20
2023-01-13T05:57:05.434Z,6.20
2023-01-13T05:59:54.005Z,6.20
2023-01-13T06:02:42.589Z,6.20
2023-01-13T06:05:31.764Z,6.20
2023-01-13T06:08:20.337Z,6.10
2023-01-13T06:11:10.353Z,6.10
2023-01-13T06:13:58.948Z,6.10
2023-01-13T06:16:47.671Z,6.10
2023-01-13T06:19:36.346Z,6.10
2023-01-13T06:22:27.745Z,6.10
2023-01-13T06:25:23.109Z,6.10
2023-01-13T06:28:13.109Z,6.00
2023-01-13T06:31:04.849Z,5.90
2023-01-13T06:33:59.547Z,5.80
2023-01-13T06:36:53.354Z,5.90
2023-01-13T06:39:42.448Z,5.80
2023-01-13T06:42:51.420Z,5.80
2023-01-13T06:45:41.783Z,5.80
2023-01-13T06:48:35.171Z,5.90
2023-01-13T06:51:23.877Z,5.90
2023-01-13T06:54:12.457Z,5.90
2023-01-13T06:57:01.041Z,6.00
2023-01-13T06:59:50.678Z,6.00
2023-01-13T07:02:40.819Z,6.00
2023-01-13T07:05:29.407Z,6.00
2023-01-13T07:08:18.041Z,6.00
2023-01-13T07:11:07.128Z,6.00
2023-01-13T07:14:13.180Z,6.00
2023-01-13T07:17:01.772Z,6.00
2023-01-13T07:19:51.905Z,6.10
2023-01-13T07:22:40.553Z,6.10
2023-01-13T07:25:29.142Z,6.10
2023-01-13T07:28:17.995Z,6.20
2023-01-13T07:31:07.300Z,6.10
2023-01-13T07:33:55.902Z,6.20
2023-01-13T07:36:45.948Z,6.20
2023-01-13T07:39:34.629Z,6.20
2023-01-13T07:42:42.932Z,6.20
2023-01-13T07:45:31.571Z,6.20
2023-01-13T07:48:20.202Z,6.20
2023-01-13T07:51:10.641Z,6.20
2023-01-13T07:54:00.653Z,6.20
2023-01-13T07:56:49.251Z,6.20
2023-01-13T07:59:38.107Z,6.20
2023-01-13T08:02:26.847Z,6.20
2023-01-13T08:05:15.684Z,6.30
2023-01-13T08:08:04.345Z,6.30
2023-01-13T08:10:54.322Z,6.30
2023-01-13T08:13:42.985Z,6.30
2023-01-13T08:16:34.512Z,6.30
2023-01-13T08:19:23.118Z,6.30
2023-01-13T08:22:11.709Z,6.30
2023-01-13T08:25:00.539Z,6.30
2023-01-13T08:27:51.759Z,6.30
2023-01-13T08:30:40.491Z,6.30
2023-01-13T08:33:29.163Z,6.40
2023-01-13T08:36:18.666Z,6.40
2023-01-13T08:39:07.321Z,6.50
2023-01-13T08:41:58.781Z,6.60
2023-01-13T08:44:48.911Z,6.70
2023-01-13T08:47:37.759Z,6.70
2023-01-13T08:50:26.438Z,6.70
2023-01-13T08:53:15.057Z,6.70
2023-01-13T08:56:03.641Z,6.60
2023-01-13T08:58:52.334Z,6.60
2023-01-13T09:01:42.629Z,6.50
2023-01-13T09:04:31.525Z,6.50
2023-01-13T09:07:20.362Z,6.50
2023-01-13T09:10:10.259Z,7.00
2023-01-13T09:13:13.030Z,7.50
2023-01-13T09:16:01.816Z,7.90
2023-01-13T09:18:51.860Z,8.30
2023-01-13T09:21:40.456Z,8.70
2023-01-13T09:24:29.481Z,8.30
2023-01-13T09:27:18.045Z,7.80
2023-01-13T09:30:07.600Z,7.30
2023-01-13T09:33:13.190Z,7.10
2023-01-13T09:36:03.337Z,6.90
2023-01-13T09:38:51.951Z,6.80
2023-01-13T09:42:01.937Z,6.80
2023-01-13T09:44:57.255Z,6.70
2023-01-13T09:47:51.905Z,6.80
2023-01-13T09:50:55.342Z,7.00
2023-01-13T09:53:52.659Z,7.30
2023-01-13T09:56:41.340Z,7.70
2023-01-13T09:59:36.512Z,7.70
2023-01-13T10:02:43.031Z,8.00
2023-01-13T10:05:37.621Z,7.80
2023-01-13T10:08:28.325Z,7.50
2023-01-13T10:11:37.682Z,7.40
2023-01-13T10:14:32.278Z,7.30
2023-01-13T10:17:28.655Z,7.30
2023-01-13T10:20:24.802Z,7.30
2023-01-13T10:23:29.578Z,7.20
2023-01-13T10:26:43.241Z,7.00
2023-01-13T10:29:34.709Z,6.80
2023-01-13T10:32:23.283Z,6.50
2023-01-13T10:35:11.883Z,6.30
2023-01-13T10:38:00.486Z,6.20
2023-01-13T10:40:51.602Z,6.10
2023-01-13T10:43:44.521Z,6.50
2023-01-13T10:46:34.716Z,7.10
2023-01-13T10:49:31.103Z,7.60
2023-01-13T10:52:27.937Z,7.90
2023-01-13T10:55:27.845Z,8.30
2023-01-13T10:58:19.832Z,8.50
2023-01-13T11:01:22.219Z,8.60
2023-01-13T11:04:29.511Z,8.70
2023-01-13T11:07:28.231Z,9.00
2023-01-13T11:10:22.553Z,8.80
2023-01-13T11:13:14.803Z,8.40
2023-01-13T11:16:06.714Z,8.10
2023-01-13T11:19:11.961Z,8.00
2023-01-13T11:22:06.346Z,7.90
2023-01-13T11:24:58.316Z,7.90
2023-01-13T11:27:52.500Z,8.10
2023-01-13T11:30:46.036Z,8.20
2023-01-13T11:33:40.192Z,8.40
2023-01-13T11:36:39.248Z,8.40
2023-01-13T11:39:38.480Z,8.10
2023-01-13T11:42:31.415Z,7.90
2023-01-13T11:45:25.373Z,7.90
2023-01-13T11:48:16.471Z,7.80
2023-01-13T11:51:12.848Z,7.80
2023-01-13T11:54:33.234Z,7.80
2023-01-13T11:57:48.194Z,7.90
2023-01-13T12:00:54.703Z,8.00
2023-01-13T12:03:47.420Z,8.00
2023-01-13T12:06:38.379Z,8.00
2023-01-13T12:09:40.486Z,7.90
2023-01-13T12:12:47.557Z,7.60
2023-01-13T12:15:52.801Z,7.50
2023-01-13T12:19:08.504Z,7.70
2023-01-13T12:22:04.608Z,8.00
2023-01-13T12:24:59.477Z,8.30
2023-01-13T12:27:52.458Z,8.20
2023-01-13T12:30:46.225Z,8.10
2023-01-13T12:34:00.278Z,7.80
2023-01-13T12:36:59.425Z,7.70
2023-01-13T12:40:00.297Z,7.50
2023-01-13T12:43:13.321Z,7.40
2023-01-13T12:46:36.726Z,7.30
2023-01-13T12:49:27.653Z,7.00
2023-01-13T12:52:19.979Z,6.80
2023-01-13T12:55:18.448Z,6.70
2023-01-13T12:58:17.425Z,6.50
2023-01-13T13:01:13.694Z,6.20
2023-01-13T13:04:10.452Z,6.10
2023-01-13T13:07:09.537Z,6.10
2023-01-13T13:10:01.735Z,6.10
2023-01-13T13:13:15.888Z,6.00
2023-01-13T13:16:39.917Z,6.00
2023-01-13T13:19:48.599Z,5.80
2023-01-13T13:22:51.318Z,5.80
2023-01-13T13:26:01.242Z,5.80
2023-01-13T13:29:02.704Z,5.70
2023-01-13T13:32:21.544Z,5.60
2023-01-13T13:35:26.610Z,5.70
2023-01-13T13:38:54.129Z,5.80
2023-01-13T13:42:04.684Z,5.90
2023-01-13T13:45:13.336Z,5.90
2023-01-13T13:48:03.177Z,6.00
2023-01-13T13:50:56.834Z,6.10
2023-01-13T13:53:45.446Z,6.20
2023-01-13T13:56:41.773Z,6.40
2023-01-13T13:59:33.617Z,6.40
2023-01-13T14:02:28.962Z,6.40
2023-01-13T14:05:20.086Z,6.50
2023-01-13T14:08:16.356Z,6.50
2023-01-13T14:11:26.492Z,6.60
2023-01-13T14:14:18.231Z,6.60
2023-01-13T14:17:06.817Z,6.70
2023-01-13T14:20:01.627Z,6.80
2023-01-13T14:22:51.911Z,6.90
2023-01-13T14:25:48.349Z,6.90
2023-01-13T14:28:39.393Z,6.80
2023-01-13T14:31:28.505Z,6.70
2023-01-13T14:34:31.365Z,6.70
2023-01-13T14:37:35.108Z,6.60
2023-01-13T14:40:45.657Z,6.60
2023-01-13T14:43:34.288Z,6.70
2023-01-13T14:46:25.529Z,6.70
2023-01-13T14:49:24.619Z,6.60
2023-01-13T21:58:34.631Z,5.00
2023-01-13T22:01:23.690Z,4.90
2023-01-13T22:04:14.962Z,4.90
2023-01-13T22:07:04.719Z,4.90
2023-01-13T22:09:53.291Z,4.90
2023-01-13T22:12:43.281Z,4.90
2023-01-13T22:15:34.609Z,4.80
2023-01-13T22:18:23.210Z,4.90
2023-01-13T22:21:11.974Z,4.90
2023-01-13T22:24:00.565Z,4.90
2023-01-13T22:26:49.192Z,4.90
2023-01-13T22:29:37.887Z,5.00
2023-01-13T22:32:27.872Z,5.00
2023-01-13T22:35:18.878Z,5.00
2023-01-13T22:38:12.124Z,5.00
2023-01-13T22:41:02.096Z,5.00
2023-01-13T22:43:50.668Z,5.00
2023-01-13T22:46:39.245Z,5.00
2023-01-13T22:49:29.834Z,5.00
2023-01-13T22:52:18.955Z,5.00
2023-01-13T22:55:09.115Z,5.00
2023-01-13T22:57:57.778Z,4.90
2023-01-13T23:00:46.865Z,4.90
2023-01-13T23:03:35.484Z,4.90
2023-01-13T23:06:27.167Z,4.90
2023-01-13T23:09:15.755Z,4.90
2023-01-13T23:12:04.468Z,4.90
2023-01-13T23:14:53.028Z,4.90
2023-01-13T23:17:41.630Z,4.90
2023-01-13T23:20:30.762Z,4.90
2023-01-13T23:23:20.775Z,4.90
2023-01-13T23:26:09.577Z,4.90
2023-01-13T23:29:03.204Z,4.90
2023-01-13T23:31:51.840Z,4.90
2023-01-13T23:34:40.444Z,4.90
2023-01-13T23:37:29.047Z,4.90
2023-01-13T23:40:19.208Z,5.00
2023-01-13T23:43:07.831Z,5.00
2023-01-13T23:46:03.528Z,5.00
2023-01-13T23:48:52.760Z,5.00
2023-01-13T23:51:41.386Z,5.00
2023-01-13T23:54:29.968Z,5.10
2023-01-13T23:57:19.977Z,5.10
